createdAt,value
2022-10-17T00:00:50.371Z,10.60
2022-10-17T00:03:17.327Z,9.70
2022-10-17T00:05:46.819Z,9.77
2022-10-17T00:08:14.865Z,9.52
2022-10-17T00:10:42.716Z,10.25
2022-10-17T00:13:10.641Z,10.70
2022-10-17T00:15:38.392Z,11.30
2022-10-17T00:18:05.079Z,10.90
2022-10-17T00:20:35.952Z,10.85
2022-10-17T00:23:02.612Z,11.93
2022-10-17T00:25:29.857Z,12.65
2022-10-17T00:27:56.516Z,11.85
2022-10-17T00:30:23.621Z,12.68
2022-10-17T00:32:50.692Z,11.85
2022-10-17T00:35:18.671Z,12.43
2022-10-17T00:37:45.423Z,13.13
2022-10-17T00:40:13.332Z,12.65
2022-10-17T00:42:39.977Z,12.80
2022-10-17T00:45:18.764Z,12.68
2022-10-17T00:48:14.669Z,14.30
2022-10-17T00:50:44.389Z,13.60
2022-10-17T00:53:12.128Z,13.93
2022-10-17T00:55:45.525Z,13.90
2022-10-17T00:58:13.158Z,12.88
2022-10-17T01:00:42.814Z,13.57
2022-10-17T01:03:09.974Z,14.02
2022-10-17T01:05:38.354Z,13.93
2022-10-17T01:08:05.567Z,13.68
2022-10-17T01:11:08.738Z,13.38
2022-10-17T01:13:53.675Z,13.63
2022-10-17T01:16:23.239Z,13.98
2022-10-17T01:19:09.378Z,13.32
2022-10-17T01:21:52.499Z,14.48
2022-10-17T01:24:57.282Z,14.15
2022-10-17T01:27:42.961Z,13.88
2022-10-17T01:30:35.125Z,14.20
2022-10-17T01:33:14.251Z,14.40
2022-10-17T01:35:50.733Z,14.52
2022-10-17T01:38:27.233Z,14.13
2022-10-17T01:41:06.556Z,14.85
2022-10-17T01:43:46.912Z,14.32
2022-10-17T01:46:22.428Z,14.57
2022-10-17T01:48:49.377Z,14.07
2022-10-17T01:51:22.916Z,13.50
2022-10-17T01:53:55.121Z,13.85
2022-10-17T01:56:26.289Z,14.10
2022-10-17T01:59:00.617Z,14.30
2022-10-17T02:01:30.835Z,14.32
2022-10-17T02:04:02.041Z,14.70
2022-10-17T02:06:28.650Z,14.93
2022-10-17T02:08:56.677Z,14.38
2022-10-17T02:11:25.690Z,14.57
2022-10-17T02:14:20.011Z,14.75
2022-10-17T02:17:19.413Z,14.50
2022-10-17T02:20:17.590Z,14.63
2022-10-17T02:22:51.950Z,14.07
2022-10-17T02:25:36.782Z,14.75
2022-10-17T02:28:20.182Z,15.00
2022-10-17T02:30:55.886Z,15.68
2022-10-17T02:33:37.411Z,15.05
2022-10-17T02:36:11.742Z,15.23
2022-10-17T02:38:40.782Z,16.10
2022-10-17T02:41:11.791Z,15.70
2022-10-17T02:43:39.646Z,14.93
2022-10-17T02:46:08.013Z,15.65
2022-10-17T02:48:41.494Z,14.38
2022-10-17T02:51:15.159Z,15.70
2022-10-17T02:53:52.559Z,16.27
2022-10-17T02:56:21.244Z,16.33
2022-10-17T02:58:57.560Z,16.77
2022-10-17T03:01:25.309Z,15.18
2022-10-17T03:04:22.721Z,15.98
2022-10-17T03:06:49.606Z,15.93
2022-10-17T03:09:18.478Z,16.23
2022-10-17T03:11:45.052Z,16.73
2022-10-17T03:14:12.425Z,16.13
2022-10-17T03:16:39.609Z,17.10
2022-10-17T03:19:07.969Z,16.00
2022-10-17T03:21:36.723Z,16.35
2022-10-17T03:24:03.925Z,16.38
2022-10-17T03:26:31.284Z,15.35
2022-10-17T03:28:58.618Z,15.10
2022-10-17T03:31:28.105Z,16.05
2022-10-17T03:33:55.421Z,16.55
2022-10-17T03:36:22.693Z,15.63
2022-10-17T03:38:53.554Z,14.93
2022-10-17T03:41:21.949Z,15.15
2022-10-17T03:43:48.626Z,16.00
2022-10-17T03:46:15.972Z,16.38
2022-10-17T03:48:42.794Z,15.35
2022-10-17T03:51:10.777Z,14.68
2022-10-17T03:53:45.380Z,14.85
2022-10-17T03:56:18.836Z,14.88
2022-10-17T03:58:52.396Z,14.63
2022-10-17T04:01:20.385Z,15.00
2022-10-17T04:03:55.616Z,15.02
2022-10-17T04:06:23.319Z,15.60
2022-10-17T04:08:50.382Z,15.52
2022-10-17T04:11:23.300Z,16.17
2022-10-17T04:13:55.208Z,14.52
2022-10-17T04:18:59.151Z,15.18
2022-10-17T04:21:30.095Z,16.10
2022-10-17T04:24:00.904Z,15.60
2022-10-17T04:29:25.494Z,15.18
2022-10-17T04:31:56.388Z,14.57
2022-10-17T04:34:33.101Z,14.35
2022-10-17T04:36:59.693Z,14.77
2022-10-17T04:39:27.770Z,15.60
2022-10-17T04:41:56.363Z,14.65
2022-10-17T04:44:24.230Z,14.18
2022-10-17T04:46:52.261Z,14.00
2022-10-17T04:49:20.147Z,14.23
2022-10-17T04:51:50.971Z,12.95
2022-10-17T04:54:29.235Z,13.93
2022-10-17T04:57:03.099Z,12.65
2022-10-17T04:59:31.449Z,12.13
2022-10-17T05:02:21.214Z,13.88
2022-10-17T05:04:48.509Z,13.32
2022-10-17T05:07:16.042Z,13.23
2022-10-17T05:10:02.188Z,12.43
2022-10-17T05:12:31.508Z,12.55
2022-10-17T05:14:59.223Z,13.30
2022-10-17T05:17:27.559Z,12.60
2022-10-17T05:19:54.803Z,13.52
2022-10-17T05:22:22.646Z,12.70
2022-10-17T05:24:50.006Z,13.05
2022-10-17T05:27:16.606Z,13.30
2022-10-17T05:29:43.976Z,12.60
2022-10-17T05:32:18.265Z,12.23
2022-10-17T05:34:45.618Z,13.10
2022-10-17T05:37:13.115Z,13.52
2022-10-17T05:39:43.069Z,14.40
2022-10-17T05:42:10.168Z,12.88
2022-10-17T05:44:39.462Z,13.30
2022-10-17T05:47:08.607Z,13.65
2022-10-17T05:49:52.456Z,12.15
2022-10-17T05:52:32.757Z,12.48
2022-10-17T05:55:08.899Z,13.15
2022-10-17T05:57:35.597Z,12.65
2022-10-17T06:00:06.537Z,12.63
2022-10-17T06:02:42.941Z,12.80
2022-10-17T06:05:13.456Z,12.13
2022-10-17T06:07:40.800Z,12.82
2022-10-17T06:10:09.194Z,12.48
2022-10-17T06:12:36.080Z,11.75
2022-10-17T06:15:03.601Z,12.27
2022-10-17T06:17:30.624Z,12.25
2022-10-17T06:19:58.369Z,11.52
2022-10-17T06:22:24.999Z,11.57
2022-10-17T06:24:55.233Z,11.63
2022-10-17T06:27:22.897Z,10.90
2022-10-17T06:29:51.442Z,11.27
2022-10-17T06:32:18.213Z,11.00
2022-10-17T06:34:47.113Z,11.02
2022-10-17T06:37:14.646Z,10.65
2022-10-17T06:39:42.622Z,10.38
2022-10-17T06:42:15.250Z,10.52
2022-10-17T06:44:56.003Z,10.55
2022-10-17T06:47:42.158Z,10.88
2022-10-17T06:50:26.038Z,10.75
2022-10-17T06:53:11.630Z,9.45
2022-10-17T06:56:09.415Z,11.00
2022-10-17T06:58:51.639Z,11.63
2022-10-17T07:01:29.837Z,10.48
2022-10-17T07:03:59.320Z,10.68
2022-10-17T07:06:26.224Z,10.10
2022-10-17T07:08:56.031Z,10.02
2022-10-17T07:11:23.232Z,9.88
2022-10-17T07:13:52.099Z,10.73
2022-10-17T07:16:21.107Z,9.60
2022-10-17T07:18:54.632Z,10.35
2022-10-17T07:21:21.575Z,10.50
2022-10-17T07:23:48.913Z,9.45
2022-10-17T07:26:16.947Z,9.93
2022-10-17T07:28:46.164Z,9.23
2022-10-17T07:31:35.881Z,9.38
2022-10-17T07:34:03.244Z,10.32
2022-10-17T07:36:30.094Z,8.82
2022-10-17T07:38:59.238Z,9.35
2022-10-17T07:41:26.568Z,8.18
2022-10-17T07:43:54.092Z,8.90
2022-10-17T07:46:25.585Z,9.60
2022-10-17T07:48:52.333Z,8.20
2022-10-17T07:51:21.834Z,8.55
2022-10-17T07:53:49.580Z,8.10
2022-10-17T07:56:16.589Z,6.82
2022-10-17T07:58:44.045Z,7.82
2022-10-17T08:01:15.394Z,6.93
2022-10-17T08:03:48.761Z,7.25
2022-10-17T08:06:15.561Z,4.80
2022-10-17T08:08:43.729Z,6.47
2022-10-17T08:11:12.512Z,7.25
2022-10-17T08:13:41.893Z,6.53
2022-10-17T08:16:11.239Z,6.55
2022-10-17T08:18:40.230Z,6.65
2022-10-17T08:21:08.195Z,6.75
2022-10-17T08:23:36.115Z,7.03
2022-10-17T08:26:05.283Z,6.03
2022-10-17T08:28:35.440Z,5.53
2022-10-17T08:31:14.112Z,5.50
2022-10-17T08:33:42.183Z,5.82
2022-10-17T08:36:10.219Z,5.07
2022-10-17T08:38:43.206Z,5.97
2022-10-17T08:43:57.644Z,6.72
2022-10-17T08:46:34.148Z,6.40
2022-10-17T08:49:03.040Z,6.30
2022-10-17T08:51:37.047Z,6.20
2022-10-17T08:54:18.676Z,6.70
2022-10-17T08:56:49.692Z,6.47
2022-10-17T08:59:28.561Z,5.57
2022-10-17T09:02:14.776Z,6.10
2022-10-17T09:04:49.737Z,6.45
2022-10-17T09:07:26.161Z,6.30
2022-10-17T09:10:06.816Z,5.85
2022-10-17T09:13:07.823Z,6.43
2022-10-17T09:15:34.726Z,6.38
2022-10-17T09:18:13.173Z,6.43
2022-10-17T09:20:49.573Z,5.90
2022-10-17T09:23:21.358Z,6.15
2022-10-17T09:25:53.538Z,6.10
2022-10-17T09:28:34.770Z,5.97
2022-10-17T09:31:05.052Z,6.78
2022-10-17T09:33:57.653Z,6.82
2022-10-17T09:36:35.861Z,7.60
2022-10-17T09:39:18.974Z,7.75
2022-10-17T09:41:51.782Z,6.38
2022-10-17T09:44:20.906Z,6.10
2022-10-17T09:47:01.660Z,7.15
2022-10-17T09:49:36.835Z,6.75
2022-10-17T09:52:06.131Z,6.72
2022-10-17T09:54:45.250Z,6.40
2022-10-17T09:57:13.255Z,6.35
2022-10-17T10:00:03.146Z,7.05
2022-10-17T10:02:33.565Z,6.00
2022-10-17T10:05:06.095Z,7.72
2022-10-17T10:07:38.220Z,7.38
2022-10-17T10:10:27.753Z,6.13
2022-10-17T10:13:16.935Z,6.00
2022-10-17T10:15:50.018Z,5.85
2022-10-17T10:18:33.816Z,6.25
2022-10-17T10:21:11.100Z,6.30
2022-10-17T10:23:41.296Z,5.72
2022-10-17T10:26:22.604Z,5.90
2022-10-17T10:29:29.336Z,6.13
2022-10-17T10:31:58.458Z,6.05
2022-10-17T10:34:30.296Z,6.07
2022-10-17T10:37:01.966Z,5.57
2022-10-17T10:39:37.404Z,5.70
2022-10-17T10:42:08.597Z,7.03
2022-10-17T10:44:38.230Z,7.30
2022-10-17T10:47:15.469Z,6.72
2022-10-17T10:49:43.258Z,6.47
2022-10-17T10:52:30.396Z,6.32
2022-10-17T10:55:15.299Z,6.38
2022-10-17T10:57:44.059Z,6.60
2022-10-17T11:00:23.294Z,7.10
2022-10-17T11:03:02.918Z,7.00
2022-10-17T11:05:58.538Z,7.95
2022-10-17T11:08:38.931Z,7.50
2022-10-17T11:11:17.921Z,8.23
2022-10-17T11:13:55.106Z,9.85
2022-10-17T11:16:35.535Z,8.73
2022-10-17T11:19:29.782Z,9.27
2022-10-17T11:22:16.150Z,10.15
2022-10-17T11:25:07.276Z,9.30
2022-10-17T11:27:35.142Z,10.02
2022-10-17T11:30:04.081Z,8.85
2022-10-17T11:32:43.796Z,9.38
2022-10-17T11:35:29.300Z,9.60
2022-10-17T11:38:25.364Z,9.55
2022-10-17T11:40:55.135Z,10.07
2022-10-17T11:43:48.704Z,9.38
2022-10-17T11:46:23.743Z,9.38
2022-10-17T11:49:09.908Z,9.40
2022-10-17T11:52:04.376Z,8.98
2022-10-17T11:54:51.233Z,10.25
2022-10-17T11:57:44.061Z,8.65
2022-10-17T12:00:17.173Z,9.43
2022-10-17T12:05:39.761Z,9.95
2022-10-17T12:08:26.942Z,9.82
2022-10-17T12:11:04.973Z,9.38
2022-10-17T12:13:32.706Z,10.48
2022-10-17T12:16:19.513Z,11.77
2022-10-17T12:18:47.578Z,11.55
2022-10-17T12:21:14.659Z,11.10
2022-10-17T12:23:52.105Z,10.80
2022-10-17T12:26:27.482Z,10.75
2022-10-17T12:28:55.733Z,9.77
2022-10-17T12:31:33.338Z,8.95
2022-10-17T12:34:05.651Z,8.45
2022-10-17T12:36:32.194Z,7.60
2022-10-17T12:39:02.484Z,6.90
2022-10-17T12:41:38.361Z,6.50
2022-10-17T12:44:15.128Z,6.53
2022-10-17T12:46:56.803Z,5.93
2022-10-17T12:49:38.086Z,6.03
2022-10-17T12:52:24.942Z,5.35
2022-10-17T12:55:18.306Z,5.47
2022-10-17T12:57:57.122Z,5.15
2022-10-17T13:00:32.119Z,5.38
2022-10-17T13:03:05.887Z,3.92
2022-10-17T13:05:38.828Z,4.78
2022-10-17T13:08:08.811Z,4.70
2022-10-17T13:10:40.718Z,4.72
2022-10-17T13:13:28.427Z,4.60
2022-10-17T13:15:55.561Z,5.05
2022-10-17T13:18:25.514Z,5.07
2022-10-17T13:21:14.865Z,4.30
2022-10-17T13:23:42.223Z,5.38
2022-10-17T13:26:23.685Z,5.45
2022-10-17T13:29:12.246Z,5.10
2022-10-17T13:31:41.146Z,5.30
2022-10-17T13:34:21.610Z,4.95
2022-10-17T13:36:53.850Z,5.05
2022-10-17T13:42:29.889Z,4.90
2022-10-17T13:44:58.633Z,4.60
2022-10-17T13:47:36.593Z,4.97
2022-10-17T13:50:12.722Z,4.75
2022-10-17T13:52:48.162Z,4.75
2022-10-17T13:55:20.220Z,5.10
2022-10-17T13:57:47.169Z,4.67
2022-10-17T14:00:22.784Z,4.45
2022-10-17T14:02:49.595Z,4.93
2022-10-17T14:05:23.455Z,4.70
2022-10-17T14:10:39.875Z,4.43
2022-10-17T14:13:10.792Z,4.70
2022-10-17T14:15:37.491Z,4.60
2022-10-17T14:18:08.304Z,4.57
2022-10-17T14:23:43.757Z,4.75
2022-10-17T14:26:17.231Z,4.47
2022-10-17T14:28:47.538Z,4.63
2022-10-17T14:31:32.256Z,5.60
2022-10-17T14:34:00.987Z,4.65
2022-10-17T14:36:34.036Z,4.43
2022-10-17T14:39:02.660Z,4.72
2022-10-17T14:41:43.577Z,5.53
2022-10-17T14:44:25.677Z,5.70
2022-10-17T14:46:57.655Z,5.68
2022-10-17T14:49:39.867Z,5.82
2022-10-17T14:52:18.286Z,5.53
2022-10-17T14:54:48.005Z,6.00
2022-10-17T14:57:18.995Z,5.40
2022-10-17T14:59:54.634Z,6.03
2022-10-17T15:02:24.290Z,6.40
2022-10-17T15:04:51.369Z,5.78
2022-10-17T15:07:18.796Z,6.75
2022-10-17T15:09:48.406Z,6.30
2022-10-17T15:12:18.505Z,6.20
2022-10-17T15:14:48.098Z,7.65
2022-10-17T15:17:27.892Z,6.80
2022-10-17T15:19:55.225Z,6.88
2022-10-17T15:22:22.084Z,7.85
2022-10-17T15:24:49.965Z,8.85
2022-10-17T15:27:19.630Z,11.35
2022-10-17T15:29:47.369Z,8.80
2022-10-17T15:32:14.048Z,7.65
2022-10-17T15:34:41.792Z,8.25
2022-10-17T15:37:21.050Z,8.32
2022-10-17T15:39:53.209Z,8.90
2022-10-17T15:42:22.335Z,10.05
2022-10-17T15:44:50.523Z,9.25
2022-10-17T15:47:33.318Z,9.30
2022-10-17T15:52:28.238Z,8.75
2022-10-17T15:54:57.346Z,9.25
2022-10-17T15:57:29.512Z,8.77
2022-10-17T15:59:59.255Z,9.15
2022-10-17T16:02:26.153Z,10.48
2022-10-17T16:04:53.763Z,9.85
2022-10-17T16:07:21.627Z,10.60
2022-10-17T16:09:49.058Z,10.45
2022-10-17T16:12:20.827Z,9.80
2022-10-17T16:14:48.211Z,9.52
2022-10-17T16:17:16.362Z,10.60
2022-10-17T16:19:44.232Z,10.77
2022-10-17T16:22:29.867Z,10.43
2022-10-17T16:24:59.514Z,10.85
2022-10-17T16:27:26.252Z,10.18
2022-10-17T16:29:53.559Z,10.85
2022-10-17T16:32:20.143Z,10.55
2022-10-17T16:34:47.394Z,10.50
2022-10-17T16:37:14.019Z,9.43
2022-10-17T16:39:41.316Z,10.18
2022-10-17T16:42:07.950Z,11.68
2022-10-17T16:44:35.337Z,12.48
2022-10-17T16:47:01.992Z,12.93
2022-10-17T16:49:29.080Z,12.20
2022-10-17T16:51:55.656Z,10.93
2022-10-17T16:54:22.896Z,10.90
2022-10-17T16:56:50.292Z,10.68
2022-10-17T16:59:17.537Z,10.30
2022-10-17T17:01:44.105Z,10.88
2022-10-17T17:04:11.350Z,11.38
2022-10-17T17:06:38.015Z,11.77
2022-10-17T17:09:05.341Z,9.95
2022-10-17T17:11:32.553Z,10.68
2022-10-17T17:14:01.909Z,11.20
2022-10-17T17:16:29.544Z,11.00
2022-10-17T17:19:03.064Z,10.98
2022-10-17T17:21:31.415Z,11.23
2022-10-17T17:24:00.745Z,11.95
2022-10-17T17:26:29.434Z,11.40
2022-10-17T17:28:58.979Z,17.92
2022-10-17T17:31:28.838Z,12.82
2022-10-17T17:36:33.270Z,11.50
2022-10-17T17:39:02.917Z,11.97
2022-10-17T17:41:29.806Z,11.88
2022-10-17T17:43:57.848Z,11.05
2022-10-17T17:46:25.474Z,11.70
2022-10-17T17:48:54.395Z,11.95
2022-10-17T17:51:29.028Z,11.80
2022-10-17T17:53:57.513Z,12.07
2022-10-17T17:56:29.220Z,12.50
2022-10-17T17:58:59.514Z,13.38
2022-10-17T18:01:28.758Z,12.55
2022-10-17T18:03:56.703Z,12.38
2022-10-17T18:06:23.430Z,12.57
2022-10-17T18:08:56.316Z,12.30
2022-10-17T18:13:54.970Z,13.05
2022-10-17T18:16:22.313Z,12.48
2022-10-17T18:18:49.456Z,15.45
2022-10-17T18:21:17.368Z,13.20
2022-10-17T18:23:46.016Z,35.83
2022-10-17T18:26:14.807Z,39.97
2022-10-17T18:28:42.993Z,31.15
2022-10-17T18:31:22.714Z,19.00
2022-10-17T18:33:52.842Z,16.27
2022-10-17T18:36:20.801Z,10.38
2022-10-17T18:38:48.847Z,10.35
2022-10-17T18:41:18.370Z,8.63
2022-10-17T18:43:47.137Z,9.27
2022-10-17T18:46:16.679Z,8.30
2022-10-17T18:48:45.269Z,8.48
2022-10-17T18:51:13.294Z,7.90
2022-10-17T18:53:46.087Z,8.60
2022-10-17T18:56:13.841Z,8.70
2022-10-17T18:58:41.107Z,7.10
2022-10-17T19:01:15.723Z,7.68
2022-10-17T19:03:44.506Z,7.18
2022-10-17T19:06:12.667Z,6.47
2022-10-17T19:08:41.947Z,6.80
2022-10-17T19:11:11.287Z,5.90
2022-10-17T19:13:38.813Z,6.18
2022-10-17T19:16:08.024Z,7.10
2022-10-17T19:18:35.548Z,6.65
2022-10-17T19:21:10.743Z,6.60
2022-10-17T19:23:38.387Z,6.55
2022-10-17T19:26:10.984Z,6.45
2022-10-17T19:28:39.841Z,6.82
2022-10-17T19:31:06.980Z,5.65
2022-10-17T19:33:34.701Z,6.20
2022-10-17T19:36:04.592Z,5.28
2022-10-17T19:38:32.065Z,10.80
2022-10-17T19:43:27.216Z,92.60
2022-10-17T19:46:00.016Z,46.28
2022-10-17T19:48:27.361Z,37.30
2022-10-17T19:50:54.551Z,21.73
2022-10-17T19:53:24.902Z,9.15
2022-10-17T19:55:51.814Z,7.15
2022-10-17T19:58:19.232Z,6.25
2022-10-17T20:00:48.591Z,6.18
2022-10-17T20:03:15.267Z,6.32
2022-10-17T20:05:42.575Z,6.85
2022-10-17T20:08:09.510Z,7.15
2022-10-17T20:10:36.230Z,7.43
2022-10-17T20:13:03.718Z,7.00
2022-10-17T20:15:30.438Z,6.45
2022-10-17T20:17:57.519Z,6.50
2022-10-17T20:20:24.706Z,5.78
2022-10-17T20:22:51.280Z,5.63
2022-10-17T20:25:18.571Z,5.43
2022-10-17T20:27:45.426Z,5.32
2022-10-17T20:30:12.405Z,5.22
2022-10-17T20:32:40.115Z,4.82
2022-10-17T20:35:07.833Z,4.78
2022-10-17T20:37:41.487Z,4.13
2022-10-17T20:40:33.454Z,4.90
2022-10-17T20:42:57.699Z,4.93
2022-10-17T20:45:37.539Z,3.78
2022-10-17T20:48:15.926Z,4.18
2022-10-17T20:50:43.471Z,3.88
2022-10-17T20:53:35.626Z,4.53
2022-10-17T20:56:13.418Z,4.90
2022-10-17T20:58:40.360Z,4.53
2022-10-17T21:01:11.041Z,4.13
2022-10-17T21:03:42.402Z,5.22
2022-10-17T21:06:12.645Z,5.10
2022-10-17T21:08:40.285Z,4.70
2022-10-17T21:11:13.102Z,4.88
2022-10-17T21:13:41.000Z,5.63
2022-10-17T21:16:14.581Z,5.45
2022-10-17T21:18:42.750Z,4.72
2022-10-17T21:21:12.553Z,5.57
2022-10-17T21:23:41.105Z,5.30
2022-10-17T21:26:09.643Z,4.55
2022-10-17T21:28:37.678Z,5.00
2022-10-17T21:31:16.337Z,5.10
2022-10-17T21:33:48.852Z,5.75
2022-10-17T21:36:16.703Z,5.05
2022-10-17T21:38:45.703Z,5.00
2022-10-17T21:41:14.230Z,5.35
2022-10-17T21:43:42.502Z,4.95
2022-10-17T21:46:17.350Z,5.60
2022-10-17T21:48:46.532Z,5.10
2022-10-17T21:51:18.322Z,4.80
2022-10-17T21:53:45.819Z,5.07
2022-10-17T21:56:17.834Z,4.60
2022-10-17T21:58:46.038Z,3.08
2022-10-17T22:01:19.314Z,4.57
2022-10-17T22:03:51.925Z,4.72
2022-10-17T22:09:23.590Z,4.20
2022-10-17T22:11:53.839Z,4.93
2022-10-17T22:14:22.755Z,5.85
2022-10-17T22:16:49.890Z,7.15
2022-10-17T22:19:21.479Z,6.88
2022-10-17T22:21:48.452Z,5.32
2022-10-17T22:24:18.071Z,5.20
2022-10-17T22:26:45.243Z,5.05
2022-10-17T22:29:13.159Z,5.47
2022-10-17T22:31:40.032Z,4.40
2022-10-17T22:34:07.977Z,4.55
2022-10-17T22:36:35.323Z,17.98
2022-10-17T22:39:03.448Z,78.78
2022-10-17T22:41:30.103Z,26.00
2022-10-17T22:43:57.778Z,12.98
2022-10-17T22:46:24.573Z,9.85
2022-10-17T22:48:52.004Z,10.77
2022-10-17T22:51:18.712Z,11.02
2022-10-17T22:53:46.077Z,8.70
2022-10-17T22:56:15.643Z,8.85
2022-10-17T22:58:43.382Z,6.82
2022-10-17T23:01:17.171Z,5.72
2022-10-17T23:03:44.914Z,6.00
2022-10-17T23:06:12.306Z,5.38
2022-10-17T23:08:40.334Z,5.25
2022-10-17T23:11:08.068Z,5.25
2022-10-17T23:13:35.714Z,5.15
2022-10-17T23:16:02.438Z,5.85
2022-10-17T23:20:57.490Z,5.45
2022-10-17T23:23:24.919Z,6.03
2022-10-17T23:25:51.770Z,5.75
2022-10-17T23:28:19.047Z,9.05
2022-10-17T23:30:45.910Z,10.95
2022-10-17T23:33:14.256Z,7.10
2022-10-17T23:35:41.124Z,6.57
2022-10-17T23:38:09.099Z,6.75
2022-10-17T23:40:35.836Z,6.55
2022-10-17T23:43:04.293Z,6.63
2022-10-17T23:45:36.029Z,7.03
2022-10-17T23:50:31.683Z,6.82
2022-10-17T23:52:58.968Z,6.05
2022-10-17T23:55:25.573Z,6.20
2022-10-17T23:57:53.324Z,5.88
